createdAt,value
2022-10-22T00:00:37.248Z,97724.34
2022-10-22T00:03:04.131Z,97725.50
2022-10-22T00:05:30.655Z,97733.66
2022-10-22T00:08:00.679Z,97729.38
2022-10-22T00:10:27.291Z,97727.84
2022-10-22T00:12:53.840Z,97748.03
2022-10-22T00:15:20.386Z,97738.31
2022-10-22T00:17:51.609Z,97724.38
2022-10-22T00:20:18.183Z,97710.78
2022-10-22T00:22:44.718Z,97713.50
2022-10-22T00:25:11.409Z,97693.34
2022-10-22T00:27:38.450Z,97667.75
2022-10-22T00:30:05.791Z,97679.75
2022-10-22T00:32:34.247Z,97699.16
2022-10-22T00:35:01.032Z,97702.28
2022-10-22T00:37:27.589Z,97723.59
2022-10-22T00:40:00.718Z,97731.34
2022-10-22T00:42:31.756Z,97736.00
2022-10-22T00:45:22.940Z,97721.28
2022-10-22T00:48:11.715Z,97728.63
2022-10-22T00:50:43.731Z,97736.38
2022-10-22T00:53:16.956Z,97740.69
2022-10-22T00:55:48.506Z,97729.03
2022-10-22T00:58:15.622Z,97729.81
2022-10-22T01:09:16.015Z,97737.97
2022-10-22T01:12:02.794Z,97730.59
2022-10-22T01:14:40.875Z,97725.16
2022-10-22T01:17:15.574Z,97728.25
2022-10-22T01:20:03.124Z,97730.19
2022-10-22T01:22:40.605Z,97723.59
2022-10-22T01:25:18.045Z,97720.47
2022-10-22T01:27:47.751Z,97725.13
2022-10-22T01:30:15.921Z,97711.94
2022-10-22T01:32:52.303Z,97713.88
2022-10-22T01:35:24.489Z,97711.94
2022-10-22T01:37:56.099Z,97709.22
2022-10-22T01:40:23.851Z,97704.19
2022-10-22T01:43:02.743Z,97709.97
2022-10-22T01:45:33.604Z,97704.91
2022-10-22T01:48:19.518Z,97703.38
2022-10-22T01:50:46.032Z,97706.06
2022-10-22T01:53:46.634Z,97704.53
2022-10-22T01:56:37.863Z,97715.78
2022-10-22T01:59:56.882Z,97718.50
2022-10-22T02:02:43.514Z,97732.84
2022-10-22T02:05:18.427Z,97730.53
2022-10-22T02:08:08.882Z,97736.72
2022-10-22T02:10:41.126Z,97725.84
2022-10-22T02:13:12.385Z,97724.31
2022-10-22T02:15:44.526Z,97732.09
2022-10-22T02:18:11.952Z,97736.72
2022-10-22T02:20:41.681Z,97727.38
2022-10-22T02:23:09.961Z,97734.78
2022-10-22T02:25:40.474Z,97737.50
2022-10-22T02:28:17.355Z,97735.13
2022-10-22T02:30:49.033Z,97738.22
2022-10-22T02:33:21.950Z,97746.00
2022-10-22T02:35:49.854Z,97739.78
2022-10-22T02:38:18.858Z,97742.13
2022-10-22T02:40:47.338Z,97743.66
2022-10-22T02:43:14.168Z,97750.66
2022-10-22T02:45:40.667Z,97742.91
2022-10-22T02:48:07.536Z,97733.97
2022-10-22T02:50:34.114Z,97729.31
2022-10-22T02:53:00.629Z,97733.19
2022-10-22T02:55:35.757Z,97736.69
2022-10-22T02:58:02.302Z,97740.97
2022-10-22T03:00:28.936Z,97747.16
2022-10-22T03:02:55.641Z,97744.06
2022-10-22T03:05:22.119Z,97738.22
2022-10-22T03:07:50.707Z,97739.03
2022-10-22T03:10:17.486Z,97747.53
2022-10-22T03:12:44.238Z,97752.22
2022-10-22T03:15:10.905Z,97747.53
2022-10-22T03:17:39.438Z,97747.94
2022-10-22T03:20:08.454Z,97751.41
2022-10-22T03:22:39.355Z,97749.09
2022-10-22T03:25:10.658Z,97757.25
2022-10-22T03:27:40.443Z,97761.50
2022-10-22T03:30:08.271Z,97761.50
2022-10-22T03:32:34.910Z,97749.88
2022-10-22T03:35:01.434Z,97747.56
2022-10-22T03:37:28.193Z,97753.78
2022-10-22T03:39:55.524Z,97763.84
2022-10-22T03:42:22.674Z,97764.25
2022-10-22T03:44:49.334Z,97767.38
2022-10-22T03:47:17.609Z,97767.75
2022-10-22T03:49:46.041Z,97767.75
2022-10-22T03:52:14.487Z,97767.00
2022-10-22T03:54:42.573Z,97773.19
2022-10-22T03:57:10.189Z,97772.44
2022-10-22T03:59:41.960Z,97771.63
2022-10-22T04:02:08.891Z,97768.13
2022-10-22T04:04:36.132Z,97771.63
2022-10-22T04:07:03.209Z,97767.38
2022-10-22T04:09:35.411Z,97773.97
2022-10-22T04:12:02.298Z,97773.19
2022-10-22T04:14:28.783Z,97773.19
2022-10-22T04:16:57.355Z,97772.41
2022-10-22T04:19:23.879Z,97786.00
2022-10-22T04:21:50.691Z,97798.38
2022-10-22T04:24:17.324Z,97799.94
2022-10-22T04:26:43.843Z,97805.75
2022-10-22T04:29:13.592Z,97807.31
2022-10-22T04:31:42.828Z,97814.66
2022-10-22T04:34:11.314Z,97806.53
2022-10-22T04:36:37.806Z,97811.16
2022-10-22T04:39:05.492Z,97800.28
2022-10-22T04:41:34.422Z,97798.38
2022-10-22T04:44:01.314Z,97792.16
2022-10-22T04:46:30.721Z,97792.16
2022-10-22T04:48:57.919Z,97788.28
2022-10-22T04:51:26.900Z,97793.34
2022-10-22T04:53:55.538Z,97810.03
2022-10-22T04:56:25.138Z,97815.88
2022-10-22T04:59:03.970Z,97826.72
2022-10-22T05:01:39.976Z,97828.28
2022-10-22T05:04:14.441Z,97819.00
2022-10-22T05:06:42.945Z,97803.47
2022-10-22T05:09:15.880Z,97806.63
2022-10-22T05:11:46.410Z,97800.41
2022-10-22T05:14:13.337Z,97805.03
2022-10-22T05:16:40.383Z,97808.94
2022-10-22T05:19:07.945Z,97808.16
2022-10-22T05:21:34.942Z,97831.41
2022-10-22T05:24:09.284Z,97834.53
2022-10-22T05:26:35.796Z,97827.56
2022-10-22T05:29:02.310Z,97826.78
2022-10-22T05:31:29.181Z,97826.78
2022-10-22T05:34:00.190Z,97834.53
2022-10-22T05:36:26.705Z,97836.09
2022-10-22T05:38:55.344Z,97831.41
2022-10-22T05:41:24.478Z,97835.72
2022-10-22T05:43:51.568Z,97840.34
2022-10-22T05:46:23.007Z,97848.88
2022-10-22T05:48:56.067Z,97847.72
2022-10-22T05:51:23.126Z,97854.31
2022-10-22T05:53:55.033Z,97855.47
2022-10-22T05:56:22.715Z,97851.97
2022-10-22T05:58:49.536Z,97850.44
2022-10-22T06:01:19.616Z,97860.50
2022-10-22T06:03:47.214Z,97848.88
2022-10-22T06:06:47.777Z,97862.44
2022-10-22T06:09:30.853Z,97866.31
2022-10-22T06:11:58.165Z,97874.47
2022-10-22T06:14:25.201Z,97879.50
2022-10-22T06:16:52.117Z,97870.59
2022-10-22T06:19:21.053Z,97877.56
2022-10-22T06:21:48.436Z,97874.88
2022-10-22T06:24:17.388Z,97885.34
2022-10-22T06:26:44.299Z,97889.59
2022-10-22T06:29:11.335Z,97896.56
2022-10-22T06:31:37.862Z,97897.75
2022-10-22T06:34:20.214Z,97900.06
2022-10-22T06:36:47.417Z,97905.50
2022-10-22T06:39:17.047Z,97904.34
2022-10-22T06:41:43.777Z,97906.66
2022-10-22T06:44:19.596Z,97910.94
2022-10-22T06:46:46.134Z,97924.53
2022-10-22T06:49:14.690Z,97929.19
2022-10-22T06:51:41.405Z,97925.31
2022-10-22T06:54:10.587Z,97928.41
2022-10-22T06:56:37.098Z,97934.59
2022-10-22T06:59:04.209Z,97940.44
2022-10-22T07:01:34.582Z,97937.72
2022-10-22T07:04:01.538Z,97943.16
2022-10-22T07:06:29.242Z,97947.81
2022-10-22T07:09:02.013Z,97949.00
2022-10-22T07:11:31.017Z,97957.88
2022-10-22T07:13:59.087Z,97950.91
2022-10-22T07:16:32.147Z,97953.63
2022-10-22T07:18:59.727Z,97957.50
2022-10-22T07:21:26.231Z,97955.56
2022-10-22T07:23:57.437Z,97958.31
2022-10-22T07:26:28.540Z,97950.94
2022-10-22T07:28:57.168Z,97959.84
2022-10-22T07:31:29.293Z,97960.56
2022-10-22T07:33:56.135Z,97965.63
2022-10-22T07:36:24.877Z,97966.41
2022-10-22T07:38:58.156Z,97975.72
2022-10-22T07:41:25.647Z,97968.56
2022-10-22T07:43:52.275Z,97978.13
2022-10-22T07:46:19.931Z,97970.97
2022-10-22T07:48:48.729Z,97974.19
2022-10-22T07:51:15.876Z,97969.81
2022-10-22T07:53:42.725Z,97973.25
2022-10-22T07:56:09.426Z,97977.72
2022-10-22T07:58:36.530Z,97975.56
2022-10-22T08:01:08.429Z,97979.78
2022-10-22T08:03:35.538Z,97982.81
2022-10-22T08:06:02.700Z,97983.97
2022-10-22T08:08:42.080Z,97982.56
2022-10-22T08:11:10.102Z,97984.84
2022-10-22T08:13:37.492Z,97988.25
2022-10-22T08:16:06.114Z,97985.31
2022-10-22T08:18:32.622Z,97986.88
2022-10-22T08:20:59.221Z,97986.13
2022-10-22T08:23:28.692Z,97983.66
2022-10-22T08:25:56.685Z,97984.97
2022-10-22T08:28:23.138Z,97989.09
2022-10-22T08:30:51.586Z,97994.72
2022-10-22T08:33:18.213Z,97988.50
2022-10-22T08:35:49.721Z,97994.59
2022-10-22T08:38:16.687Z,97983.41
2022-10-22T08:40:50.148Z,97986.63
2022-10-22T08:43:37.022Z,97989.38
2022-10-22T08:46:16.481Z,97990.53
2022-10-22T08:48:47.543Z,97992.09
2022-10-22T08:51:21.382Z,97989.03
2022-10-22T08:54:05.347Z,97987.56
2022-10-22T08:56:34.994Z,97997.09
2022-10-22T08:59:11.378Z,97997.06
2022-10-22T09:01:46.143Z,98001.28
2022-10-22T09:04:36.508Z,98002.06
2022-10-22T09:07:04.979Z,98001.91
2022-10-22T09:09:47.019Z,98000.03
2022-10-22T09:12:20.215Z,98003.84
2022-10-22T09:14:49.435Z,98005.91
2022-10-22T09:17:29.564Z,98005.53
2022-10-22T09:20:26.357Z,98005.28
2022-10-22T09:23:16.835Z,98006.00
2022-10-22T09:25:47.152Z,98014.97
2022-10-22T09:28:15.984Z,98018.34
2022-10-22T09:30:43.439Z,98020.16
2022-10-22T09:33:10.054Z,98012.72
2022-10-22T09:35:50.908Z,98020.44
2022-10-22T09:38:23.445Z,98017.47
2022-10-22T09:40:53.130Z,98019.88
2022-10-22T09:43:20.176Z,98021.81
2022-10-22T09:45:49.739Z,98018.78
2022-10-22T09:48:30.574Z,98019.97
2022-10-22T09:51:41.648Z,98025.97
2022-10-22T09:54:23.593Z,98016.88
2022-10-22T09:57:05.640Z,98018.00
2022-10-22T09:59:39.531Z,98022.75
2022-10-22T10:02:43.724Z,98019.53
2022-10-22T10:05:20.028Z,98024.03
2022-10-22T10:07:50.331Z,98019.84
2022-10-22T10:10:37.113Z,98028.41
2022-10-22T10:13:19.647Z,98028.06
2022-10-22T10:16:20.961Z,98034.47
2022-10-22T10:19:13.565Z,98042.19
2022-10-22T10:22:00.020Z,98036.59
2022-10-22T10:24:34.389Z,98040.66
2022-10-22T10:27:20.215Z,98042.16
2022-10-22T10:29:55.990Z,98036.22
2022-10-22T10:32:46.386Z,98042.06
2022-10-22T10:35:25.695Z,98046.00
2022-10-22T10:38:03.975Z,98044.88
2022-10-22T10:40:39.832Z,98039.41
2022-10-22T10:43:29.599Z,98039.09
2022-10-22T10:46:21.208Z,98038.53
2022-10-22T10:48:56.599Z,98041.97
2022-10-22T10:51:39.345Z,98039.31
2022-10-22T10:54:16.729Z,98033.56
2022-10-22T10:56:58.695Z,98032.97
2022-10-22T10:59:44.112Z,98031.38
2022-10-22T11:02:29.465Z,98027.25
2022-10-22T11:05:23.328Z,98028.09
2022-10-22T11:07:59.700Z,98027.03
2022-10-22T11:10:36.549Z,98027.47
2022-10-22T11:13:31.045Z,98025.94
2022-10-22T11:16:06.976Z,98022.22
2022-10-22T11:18:48.213Z,98021.16
2022-10-22T11:21:22.797Z,98016.97
2022-10-22T11:24:49.212Z,98010.00
2022-10-22T11:27:22.716Z,98011.22
2022-10-22T11:29:59.412Z,98011.47
2022-10-22T11:32:28.005Z,98014.25
2022-10-22T11:35:03.206Z,98008.56
2022-10-22T11:37:34.941Z,98008.00
2022-10-22T11:40:11.022Z,98014.78
2022-10-22T11:42:43.306Z,98011.22
2022-10-22T11:45:15.564Z,98012.00
2022-10-22T11:47:53.101Z,98009.25
2022-10-22T11:50:45.465Z,98001.03
2022-10-22T11:53:14.713Z,97999.75
2022-10-22T11:55:50.884Z,97997.59
2022-10-22T11:58:42.235Z,97985.66
2022-10-22T12:01:13.299Z,97993.38
2022-10-22T12:04:04.074Z,97993.47
2022-10-22T12:06:56.523Z,97992.19
2022-10-22T12:09:26.687Z,97997.31
2022-10-22T12:12:03.453Z,97988.84
2022-10-22T12:14:40.773Z,97984.72
2022-10-22T12:17:15.654Z,97982.09
2022-10-22T12:19:48.961Z,97982.25
2022-10-22T12:22:21.045Z,97993.28
2022-10-22T12:24:51.760Z,97989.09
2022-10-22T12:27:30.143Z,97990.53
2022-10-22T12:29:59.128Z,97977.63
2022-10-22T12:32:40.510Z,97978.88
2022-10-22T12:35:17.672Z,97976.91
2022-10-22T12:37:50.760Z,97974.31
2022-10-22T12:40:20.334Z,97964.94
2022-10-22T12:42:58.746Z,97966.16
2022-10-22T12:45:34.317Z,97968.22
2022-10-22T12:48:07.342Z,97967.53
2022-10-22T12:50:38.345Z,97964.06
2022-10-22T12:53:07.103Z,97958.22
2022-10-22T12:55:34.533Z,97957.59
2022-10-22T12:58:07.373Z,97962.13
2022-10-22T13:00:35.471Z,97961.47
2022-10-22T13:03:06.541Z,97963.69
2022-10-22T13:05:43.299Z,97948.91
2022-10-22T13:08:12.564Z,97947.50
2022-10-22T13:10:41.508Z,97952.13
2022-10-22T13:13:42.766Z,97949.97
2022-10-22T13:16:25.785Z,97942.91
2022-10-22T13:18:53.133Z,97938.63
2022-10-22T13:21:29.676Z,97928.06
2022-10-22T13:24:03.436Z,97939.69
2022-10-22T13:26:34.010Z,97928.22
2022-10-22T13:29:01.453Z,97929.41
2022-10-22T13:31:33.631Z,97926.59
2022-10-22T13:34:09.784Z,97921.38
2022-10-22T13:36:38.642Z,97925.03
2022-10-22T13:39:08.028Z,97917.59
2022-10-22T13:44:12.828Z,97924.84
2022-10-22T13:46:42.913Z,97921.09
2022-10-22T13:49:23.610Z,97915.94
2022-10-22T13:51:51.356Z,97919.81
2022-10-22T13:54:23.822Z,97919.31
2022-10-22T13:56:50.548Z,97918.81
2022-10-22T13:59:19.767Z,97919.72
2022-10-22T14:01:49.400Z,97911.50
2022-10-22T14:04:17.645Z,97910.53
2022-10-22T14:06:44.428Z,97911.25
2022-10-22T14:09:15.152Z,97913.47
2022-10-22T14:11:42.097Z,97915.34
2022-10-22T14:14:09.236Z,97911.94
2022-10-22T14:16:37.652Z,97916.69
2022-10-22T14:19:07.346Z,97911.56
2022-10-22T14:21:37.768Z,97913.03
2022-10-22T14:24:07.073Z,97910.59
2022-10-22T14:26:42.572Z,97913.53
2022-10-22T14:29:10.342Z,97907.69
2022-10-22T14:34:12.481Z,97912.94
2022-10-22T14:36:39.086Z,97903.84
2022-10-22T14:39:07.871Z,97910.22
2022-10-22T14:41:36.493Z,97909.81
2022-10-22T14:44:03.158Z,97910.22
2022-10-22T14:46:29.643Z,97905.28
2022-10-22T14:49:07.573Z,97917.50
2022-10-22T14:51:36.792Z,97912.91
2022-10-22T14:54:06.780Z,97897.06
2022-10-22T14:56:33.309Z,97898.94
2022-10-22T14:58:59.853Z,97893.91
2022-10-22T15:01:26.361Z,97894.22
2022-10-22T15:03:52.879Z,97896.41
2022-10-22T15:06:23.865Z,97897.63
2022-10-22T15:08:50.874Z,97888.50
2022-10-22T15:11:19.637Z,97893.47
2022-10-22T15:13:46.136Z,97910.31
2022-10-22T15:16:15.522Z,97895.13
2022-10-22T15:18:44.728Z,97902.03
2022-10-22T15:21:20.506Z,97904.72
2022-10-22T15:23:47.358Z,97912.72
2022-10-22T15:26:14.692Z,97916.88
2022-10-22T15:28:41.714Z,97911.47
2022-10-22T15:31:08.508Z,97911.91
2022-10-22T15:33:34.990Z,97908.59
2022-10-22T15:36:11.928Z,97902.63
2022-10-22T15:38:38.571Z,97910.63
2022-10-22T15:41:08.672Z,97912.25
2022-10-22T15:43:35.351Z,97914.84
2022-10-22T15:46:14.881Z,97916.34
2022-10-22T15:48:42.171Z,97916.31
2022-10-22T15:51:14.678Z,97915.38
2022-10-22T15:53:41.603Z,97920.34
2022-10-22T15:56:09.045Z,97917.47
2022-10-22T15:58:37.814Z,97926.72
2022-10-22T16:01:15.379Z,97916.75
2022-10-22T16:03:42.216Z,97919.38
2022-10-22T16:06:09.538Z,97925.88
2022-10-22T16:08:37.232Z,97926.53
2022-10-22T16:11:03.987Z,97931.09
2022-10-22T16:13:31.078Z,97929.75
2022-10-22T16:16:02.007Z,97926.13
2022-10-22T16:18:28.574Z,97917.41
2022-10-22T16:20:55.021Z,97919.66
2022-10-22T16:23:21.652Z,97917.28
2022-10-22T16:25:48.204Z,97914.09
2022-10-22T16:28:14.858Z,97920.53
2022-10-22T16:30:43.505Z,97914.38
2022-10-22T16:33:11.649Z,97915.59
2022-10-22T16:35:42.093Z,97909.06
2022-10-22T16:38:10.935Z,97916.59
2022-10-22T16:40:39.788Z,97914.06
2022-10-22T16:43:06.335Z,97916.94
2022-10-22T16:45:34.632Z,97913.59
2022-10-22T16:50:54.853Z,97919.78
2022-10-22T16:53:24.885Z,97928.91
2022-10-22T16:55:51.389Z,97919.63
2022-10-22T16:58:18.077Z,97925.94
2022-10-22T17:00:44.629Z,97926.78
2022-10-22T17:03:12.160Z,97925.31
2022-10-22T17:05:43.338Z,97921.47
2022-10-22T17:08:09.804Z,97934.00
2022-10-22T17:10:37.419Z,97929.81
2022-10-22T17:13:07.411Z,97929.94
2022-10-22T17:15:33.943Z,97930.41
2022-10-22T17:18:00.843Z,97922.72
2022-10-22T17:20:35.086Z,97918.03
2022-10-22T17:23:01.564Z,97922.72
2022-10-22T17:26:02.862Z,97928.94
2022-10-22T17:28:29.768Z,97925.47
2022-10-22T17:31:14.794Z,97927.44
2022-10-22T17:33:41.294Z,97929.00
2022-10-22T17:36:10.873Z,97936.44
2022-10-22T17:38:40.586Z,97925.19
2022-10-22T17:41:10.408Z,97922.13
2022-10-22T17:43:40.693Z,97923.34
2022-10-22T17:46:12.520Z,97924.91
2022-10-22T17:48:39.013Z,97933.16
2022-10-22T17:51:10.335Z,97928.53
2022-10-22T17:53:40.856Z,97933.97
2022-10-22T17:56:10.147Z,97937.06
2022-10-22T17:58:37.359Z,97938.22
2022-10-22T18:01:04.656Z,97947.22
2022-10-22T18:03:32.297Z,97949.53
2022-10-22T18:06:07.492Z,97951.91
2022-10-22T18:08:34.125Z,97946.84
2022-10-22T18:11:01.197Z,97948.81
2022-10-22T18:16:19.562Z,97944.94
2022-10-22T18:18:50.663Z,97940.66
2022-10-22T18:21:17.820Z,97932.53
2022-10-22T18:23:45.067Z,97940.34
2022-10-22T18:26:12.010Z,97947.38
2022-10-22T18:28:38.531Z,97948.94
2022-10-22T18:31:09.359Z,97953.97
2022-10-22T18:33:36.938Z,97952.06
2022-10-22T18:36:11.628Z,97951.31
2022-10-22T18:38:38.610Z,97947.81
2022-10-22T18:41:09.885Z,97956.78
2022-10-22T18:43:38.551Z,97959.94
2022-10-22T18:46:10.604Z,97954.91
2022-10-22T18:48:37.145Z,97959.22
2022-10-22T18:51:10.114Z,97963.50
2022-10-22T18:53:37.632Z,97967.03
2022-10-22T18:56:09.303Z,97960.03
2022-10-22T18:58:42.706Z,97962.00
2022-10-22T19:01:13.507Z,97957.75
2022-10-22T19:03:40.392Z,97959.31
2022-10-22T19:06:09.456Z,97966.66
2022-10-22T19:08:37.036Z,97963.19
2022-10-22T19:11:15.485Z,97965.13
2022-10-22T19:13:42.840Z,97962.78
2022-10-22T19:16:15.571Z,97962.00
2022-10-22T19:18:44.088Z,97960.03
2022-10-22T19:21:11.509Z,97966.25
2022-10-22T19:23:38.004Z,97959.22
2022-10-22T19:26:12.386Z,97954.19
2022-10-22T19:28:39.982Z,97951.06
2022-10-22T19:31:18.999Z,97952.66
2022-10-22T19:33:47.991Z,97947.22
2022-10-22T19:36:16.840Z,97954.56
2022-10-22T19:41:21.261Z,97935.09
2022-10-22T19:43:50.296Z,97935.47
2022-10-22T19:46:18.220Z,97928.06
2022-10-22T19:51:21.571Z,97935.09
2022-10-22T19:53:49.177Z,97925.81
2022-10-22T19:56:21.119Z,97940.59
2022-10-22T19:58:47.954Z,97942.91
2022-10-22T20:01:25.672Z,97935.94
2022-10-22T20:03:54.558Z,97944.06
2022-10-22T20:06:21.953Z,97930.81
2022-10-22T20:08:51.120Z,97934.34
2022-10-22T20:11:25.863Z,97940.53
2022-10-22T20:13:54.171Z,97934.69
2022-10-22T20:16:24.345Z,97947.13
2022-10-22T20:18:53.665Z,97936.56
2022-10-22T20:21:23.474Z,97931.13
2022-10-22T20:23:54.591Z,97940.06
2022-10-22T20:26:23.386Z,97938.09
2022-10-22T20:28:56.505Z,97942.72
2022-10-22T20:31:27.140Z,97955.19
2022-10-22T20:33:56.896Z,97959.03
2022-10-22T20:36:26.585Z,97951.25
2022-10-22T20:38:53.294Z,97945.00
2022-10-22T20:41:22.494Z,97945.75
2022-10-22T20:43:51.632Z,97930.94
2022-10-22T20:46:25.512Z,97934.88
2022-10-22T20:48:58.265Z,97943.03
2022-10-22T20:51:24.845Z,97939.56
2022-10-22T20:53:51.342Z,97949.69
2022-10-22T20:56:18.653Z,97954.75
2022-10-22T20:58:49.084Z,97955.94
2022-10-22T21:01:29.814Z,97960.66
2022-10-22T21:03:56.888Z,97960.66
2022-10-22T21:06:25.688Z,97958.66
2022-10-22T21:08:54.261Z,97945.03
2022-10-22T21:11:22.758Z,97949.25
2022-10-22T21:13:50.341Z,97953.13
2022-10-22T21:16:20.523Z,97943.38
2022-10-22T21:18:49.659Z,97955.44
2022-10-22T21:21:19.999Z,97942.56
2022-10-22T21:23:48.816Z,97949.59
2022-10-22T21:26:15.328Z,97948.47
2022-10-22T21:28:41.861Z,97952.38
2022-10-22T21:31:10.520Z,97957.09
2022-10-22T21:33:39.195Z,97951.72
2022-10-22T21:36:06.948Z,97952.91
2022-10-22T21:38:41.650Z,97958.75
2022-10-22T21:41:10.664Z,97963.03
2022-10-22T21:43:40.250Z,97952.56
2022-10-22T21:46:15.126Z,97958.00
2022-10-22T21:48:44.246Z,97950.59
2022-10-22T21:51:13.571Z,97947.09
2022-10-22T21:53:41.332Z,97947.91
2022-10-22T21:56:12.811Z,97944.03
2022-10-22T21:58:39.323Z,97949.13
2022-10-22T22:01:10.502Z,97937.88
2022-10-22T22:03:37.218Z,97935.53
2022-10-22T22:06:06.266Z,97928.94
2022-10-22T22:08:34.399Z,97931.66
2022-10-22T22:11:06.740Z,97928.16
2022-10-22T22:13:34.226Z,97936.31
2022-10-22T22:16:05.728Z,97937.09
2022-10-22T22:18:32.659Z,97935.97
2022-10-22T22:20:59.993Z,97926.59
2022-10-22T22:23:35.184Z,97921.53
2022-10-22T22:26:02.292Z,97925.00
2022-10-22T22:28:30.440Z,97926.97
2022-10-22T22:30:57.569Z,97928.13
2022-10-22T22:33:24.557Z,97930.06
2022-10-22T22:35:51.488Z,97919.16
2022-10-22T22:38:20.321Z,97912.59
2022-10-22T22:40:47.078Z,97911.81
2022-10-22T22:43:13.606Z,97920.38
2022-10-22T22:45:42.589Z,97923.09
2022-10-22T22:48:09.085Z,97921.97
2022-10-22T22:50:36.689Z,97929.41
2022-10-22T22:53:05.415Z,97938.75
2022-10-22T22:55:32.099Z,97939.19
2022-10-22T22:57:58.962Z,97934.56
2022-10-22T23:00:27.246Z,97929.94
2022-10-22T23:02:55.553Z,97930.31
2022-10-22T23:05:22.121Z,97929.97
2022-10-22T23:07:50.882Z,97929.19
2022-10-22T23:10:17.413Z,97929.56
2022-10-22T23:12:44.165Z,97936.16
2022-10-22T23:15:13.457Z,97919.88
2022-10-22T23:17:39.975Z,97924.53
2022-10-22T23:20:11.931Z,97926.06
2022-10-22T23:22:40.443Z,97924.13
2022-10-22T23:25:07.522Z,97924.13
2022-10-22T23:27:34.005Z,97929.53
2022-10-22T23:30:02.254Z,97927.63
2022-10-22T23:32:31.206Z,97931.88
2022-10-22T23:34:57.831Z,97930.34
2022-10-22T23:37:24.510Z,97923.34
2022-10-22T23:39:50.974Z,97919.06
2022-10-22T23:42:17.442Z,97917.53
2022-10-22T23:44:49.089Z,97910.16
2022-10-22T23:47:15.581Z,97904.31
2022-10-22T23:49:42.410Z,97895.81
2022-10-22T23:52:11.358Z,97897.75
2022-10-22T23:54:37.843Z,97901.22
2022-10-22T23:57:04.378Z,97900.84
2022-10-22T23:59:32.614Z,97900.06
